Time;durP1;ratioP1;P1;durP2;ratioP2;P2;SDS_P1;SDS_P2;PMS_P1;PMS_P2;Temp;Humidity;BMP_temperature;BMP_pressure;BME280_temperature;BME280_humidity;BME280_pressure;Samples;Min_cycle;Max_cycle;Signal;HPM_P1;HPM_P2
2022/12/21 00:01:24;;;;;;;8.53;3.40;;;6.20;58.30;;;;;;4975605;28;45943;-66
2022/12/21 00:04:01;;;;;;;6.67;3.10;;;6.10;58.50;;;;;;4970481;28;47774;-67
2022/12/21 00:06:29;;;;;;;5.50;3.10;;;6.10;58.70;;;;;;4973728;28;46494;-66
2022/12/21 00:08:59;;;;;;;10.07;4.43;;;6.10;58.80;;;;;;4970435;28;45947;-66
2022/12/21 00:11:26;;;;;;;7.97;4.67;;;6.10;58.70;;;;;;4971962;28;46639;-66
2022/12/21 00:13:54;;;;;;;8.33;4.03;;;6.20;58.40;;;;;;4971535;28;47373;-67
2022/12/21 00:16:22;;;;;;;6.80;3.67;;;6.30;58.20;;;;;;4970365;28;46546;-66
2022/12/21 00:18:48;;;;;;;5.00;3.27;;;6.30;58.10;;;;;;4971920;28;45875;-66
2022/12/21 00:21:19;;;;;;;6.93;3.50;;;6.30;58.30;;;;;;4970268;28;46619;-66
2022/12/21 00:23:46;;;;;;;4.23;2.60;;;6.30;58.30;;;;;;4971999;28;46545;-67
2022/12/21 00:26:13;;;;;;;4.17;2.53;;;6.40;58.10;;;;;;4971343;28;45827;-67
2022/12/21 00:28:39;;;;;;;5.57;2.73;;;6.50;57.90;;;;;;4973120;28;46542;-66
2022/12/21 00:31:12;;;;;;;4.77;2.80;;;6.50;57.60;;;;;;4972660;28;46524;-67
2022/12/21 00:33:39;;;;;;;8.07;2.87;;;6.60;57.70;;;;;;4968989;28;46610;-67
2022/12/21 00:36:06;;;;;;;4.60;2.83;;;6.70;57.40;;;;;;4969666;28;46757;-67
2022/12/21 00:38:35;;;;;;;3.30;2.40;;;6.80;57.20;;;;;;4969989;28;46497;-67
2022/12/21 00:41:07;;;;;;;5.33;2.70;;;6.80;57.20;;;;;;4970490;28;46407;-66
2022/12/21 00:43:35;;;;;;;4.43;2.80;;;6.80;57.20;;;;;;4971484;28;46942;-67
2022/12/21 00:46:01;;;;;;;4.53;2.60;;;6.80;57.00;;;;;;4971180;28;46447;-67
2022/12/21 00:48:31;;;;;;;4.97;3.13;;;6.80;58.40;;;;;;4970965;28;46443;-68
2022/12/21 00:51:04;;;;;;;5.17;2.60;;;6.70;57.20;;;;;;4971912;28;46451;-67
2022/12/21 00:53:30;;;;;;;4.63;2.40;;;6.70;57.50;;;;;;4971331;28;47208;-67
2022/12/21 00:55:57;;;;;;;5.67;2.73;;;6.70;57.70;;;;;;4973091;28;46480;-67
2022/12/21 00:58:24;;;;;;;3.27;2.30;;;6.70;57.60;;;;;;4972791;28;45868;-68
2022/12/21 01:00:55;;;;;;;3.37;2.17;;;6.70;57.50;;;;;;4971495;28;46407;-66
2022/12/21 01:03:22;;;;;;;5.70;2.13;;;6.70;57.70;;;;;;4970854;28;46473;-67
2022/12/21 01:05:49;;;;;;;4.07;2.00;;;6.70;57.80;;;;;;4971465;28;46354;-67
2022/12/21 01:08:17;;;;;;;3.90;2.70;;;6.70;57.70;;;;;;4972998;28;46368;-68
2022/12/21 01:10:43;;;;;;;3.90;2.27;;;6.70;57.80;;;;;;4969473;28;46400;-67
2022/12/21 01:13:10;;;;;;;2.87;2.27;;;6.80;57.90;;;;;;4968293;28;46517;-67
2022/12/21 01:15:43;;;;;;;3.70;2.40;;;6.80;57.70;;;;;;4971896;28;46475;-68
2022/12/21 01:18:11;;;;;;;3.20;2.40;;;6.70;57.70;;;;;;4970895;28;46313;-66
2022/12/21 01:20:44;;;;;;;3.43;2.17;;;6.70;57.60;;;;;;4970144;28;46492;-68
2022/12/21 01:23:10;;;;;;;3.80;2.20;;;6.70;57.40;;;;;;4969084;28;46455;-66
2022/12/21 01:25:36;;;;;;;3.73;2.50;;;6.70;57.40;;;;;;4968335;28;46385;-69
2022/12/21 01:28:02;;;;;;;5.57;2.40;;;6.70;57.30;;;;;;4970808;28;45902;-66
2022/12/21 01:30:27;;;;;;;3.90;2.03;;;6.70;57.20;;;;;;4966833;28;46614;-68
2022/12/21 01:32:53;;;;;;;3.70;2.20;;;6.80;57.20;;;;;;4972733;28;47306;-69
2022/12/21 01:35:19;;;;;;;4.07;2.00;;;6.80;57.20;;;;;;4969081;28;46454;-66
2022/12/21 01:37:45;;;;;;;3.60;2.47;;;6.80;57.20;;;;;;4971644;28;46493;-67
2022/12/21 01:40:11;;;;;;;4.73;2.40;;;6.80;57.00;;;;;;4964981;28;46614;-67
2022/12/21 01:42:37;;;;;;;4.70;2.70;;;6.80;56.90;;;;;;4970091;28;46556;-66
2022/12/21 01:45:23;;;;;;;4.00;2.20;;;6.80;57.10;;;;;;4965656;28;46345;-68
2022/12/21 01:47:58;;;;;;;3.90;2.33;;;6.80;56.90;;;;;;4970724;28;45922;-67
2022/12/21 01:50:45;;;;;;;3.80;2.00;;;6.80;56.80;;;;;;4983864;28;46712;-67
2022/12/21 01:53:18;;;;;;;7.37;2.50;;;6.90;56.80;;;;;;4965869;28;47095;-66
2022/12/21 01:55:48;;;;;;;3.43;2.00;;;6.90;57.90;;;;;;4971034;28;46433;-66
2022/12/21 01:58:15;;;;;;;4.03;2.17;;;6.90;56.80;;;;;;4982438;28;46409;-67
2022/12/21 02:00:41;;;;;;;5.50;2.43;;;6.90;56.80;;;;;;4967384;28;46426;-66
2022/12/21 02:03:12;;;;;;;4.70;2.40;;;7.00;56.70;;;;;;4970842;28;46792;-68
2022/12/21 02:05:53;;;;;;;5.07;2.43;;;7.00;57.90;;;;;;4969451;28;46550;-66
2022/12/21 02:08:20;;;;;;;4.43;2.40;;;7.00;56.50;;;;;;4970103;28;46526;-66
2022/12/21 02:10:46;;;;;;;3.63;2.43;;;7.10;56.60;;;;;;4970665;28;46448;-64
2022/12/21 02:13:13;;;;;;;4.50;2.73;;;7.00;56.40;;;;;;4973393;28;47201;-65
2022/12/21 02:15:57;;;;;;;7.40;2.60;;;7.00;56.50;;;;;;4968869;28;46519;-63
2022/12/21 02:18:45;;;;;;;3.27;2.13;;;7.10;56.50;;;;;;4969851;28;45911;-63
2022/12/21 02:21:14;;;;;;;3.73;2.17;;;7.10;56.30;;;;;;4967340;28;46315;-64
2022/12/21 02:24:05;;;;;;;3.10;1.80;;;7.10;56.30;;;;;;4970168;28;46666;-64
2022/12/21 02:26:49;;;;;;;4.33;2.63;;;7.10;56.20;;;;;;4969276;28;46384;-64
2022/12/21 02:29:24;;;;;;;4.33;2.27;;;7.10;56.30;;;;;;4969619;28;46411;-65
2022/12/21 02:31:52;;;;;;;3.90;2.40;;;7.10;55.70;;;;;;4971311;28;46618;-64
2022/12/21 02:34:38;;;;;;;3.80;2.20;;;7.10;56.70;;;;;;4968000;28;46555;-64
2022/12/21 02:37:22;;;;;;;4.20;2.37;;;7.10;56.70;;;;;;4969814;28;46354;-64
2022/12/21 02:40:12;;;;;;;2.87;2.10;;;7.10;56.60;;;;;;4971306;28;46924;-66
2022/12/21 02:45:44;;;;;;;3.37;2.07;;;6.80;57.00;;;;;;4967967;28;45845;-64
2022/12/21 02:48:45;;;;;;;4.40;2.10;;;6.70;57.40;;;;;;4966601;28;46469;-64
2022/12/21 02:51:17;;;;;;;6.47;2.27;;;6.60;57.60;;;;;;4953128;28;46577;-65
2022/12/21 02:53:45;;;;;;;3.67;1.60;;;6.60;57.70;;;;;;4965072;28;46685;-63
2022/12/21 02:56:19;;;;;;;2.50;1.50;;;6.60;57.70;;;;;;4970297;28;47321;-65
2022/12/21 02:58:44;;;;;;;2.67;1.60;;;6.60;57.70;;;;;;4965991;28;46066;-64
2022/12/21 03:01:31;;;;;;;2.37;1.67;;;6.50;57.70;;;;;;4967728;28;46538;-65
2022/12/21 03:04:15;;;;;;;3.23;1.60;;;6.40;57.70;;;;;;4969091;28;46375;-64
2022/12/21 03:07:02;;;;;;;1.90;1.40;;;6.50;58.00;;;;;;4970207;28;46502;-67
2022/12/21 03:09:38;;;;;;;3.53;1.50;;;6.50;57.90;;;;;;4970913;28;46432;-67
2022/12/21 03:12:22;;;;;;;1.60;1.20;;;6.60;58.00;;;;;;4972277;28;46352;-66
2022/12/21 03:15:10;;;;;;;2.80;1.70;;;6.60;57.80;;;;;;4975495;28;45919;-66
2022/12/21 03:17:46;;;;;;;2.03;1.43;;;6.70;57.90;;;;;;4970857;28;46788;-67
2022/12/21 03:20:28;;;;;;;2.70;1.80;;;6.70;57.70;;;;;;4969455;28;45856;-66
2022/12/21 03:22:56;;;;;;;8.43;1.93;;;6.70;57.70;;;;;;4972501;28;46409;-68
2022/12/21 03:25:30;;;;;;;3.43;1.90;;;6.80;57.60;;;;;;4972194;28;46443;-67
2022/12/21 03:28:01;;;;;;;3.27;1.97;;;6.80;57.50;;;;;;4969582;28;46429;-66
2022/12/21 03:30:29;;;;;;;3.60;1.90;;;6.90;57.20;;;;;;4970763;28;46412;-66
2022/12/21 03:33:02;;;;;;;1.90;1.67;;;6.90;57.10;;;;;;4978364;28;46711;-66
2022/12/21 03:35:45;;;;;;;5.27;2.80;;;6.90;57.00;;;;;;4973449;28;46634;-66
2022/12/21 03:38:19;;;;;;;3.30;1.93;;;6.90;57.00;;;;;;4970431;28;46466;-67
2022/12/21 03:40:48;;;;;;;2.70;1.93;;;6.90;57.10;;;;;;4971065;28;46469;-66
2022/12/21 03:43:29;;;;;;;3.23;2.27;;;7.00;57.10;;;;;;4971740;28;46479;-66
2022/12/21 03:45:59;;;;;;;3.20;1.77;;;7.00;57.10;;;;;;4971005;28;46516;-66
2022/12/21 03:48:40;;;;;;;4.20;2.17;;;7.00;57.10;;;;;;4972091;28;46395;-67
2022/12/21 03:51:14;;;;;;;4.20;1.80;;;7.10;58.10;;;;;;4970306;28;46424;-67
2022/12/21 03:53:49;;;;;;;3.50;1.70;;;7.00;57.30;;;;;;4974453;28;46378;-66
2022/12/21 03:56:22;;;;;;;3.10;1.80;;;7.10;57.60;;;;;;4971398;28;46510;-65
2022/12/21 03:58:48;;;;;;;2.47;1.60;;;7.10;57.80;;;;;;4972758;28;46389;-67
2022/12/21 04:01:28;;;;;;;3.90;1.83;;;7.10;57.70;;;;;;4969625;28;46449;-67
2022/12/21 04:04:02;;;;;;;4.03;1.97;;;7.20;57.70;;;;;;4973040;28;46470;-67
2022/12/21 04:06:32;;;;;;;9.00;1.50;;;7.30;57.70;;;;;;4972722;28;46602;-66
2022/12/21 04:08:59;;;;;;;3.10;1.97;;;7.30;57.70;;;;;;4972732;28;46684;-66
2022/12/21 04:14:15;;;;;;;17.37;7.20;;;7.30;57.60;;;;;;4972460;28;46458;-66
2022/12/21 04:16:41;;;;;;;10.20;3.73;;;7.40;59.00;;;;;;4974148;28;46373;-65
2022/12/21 04:21:50;;;;;;;5.20;2.43;;;7.10;57.40;;;;;;4972703;28;46571;-66
2022/12/21 04:29:44;;;;;;;4.70;2.70;;;7.20;58.50;;;;;;4968736;28;46823;-65
2022/12/21 04:32:10;;;;;;;5.40;2.90;;;7.20;58.40;;;;;;4967436;28;46451;-66
2022/12/21 04:34:35;;;;;;;2.73;1.93;;;7.20;58.60;;;;;;4970041;28;46584;-66
2022/12/21 04:39:45;;;;;;;2.70;1.97;;;7.10;58.50;;;;;;4969254;28;46381;-66
2022/12/21 04:42:11;;;;;;;4.10;1.80;;;7.20;58.40;;;;;;4970952;28;46713;-65
2022/12/21 04:44:36;;;;;;;3.13;2.00;;;7.10;58.20;;;;;;4970922;28;46483;-67
2022/12/21 04:47:02;;;;;;;2.60;1.70;;;7.10;59.40;;;;;;4968773;28;46421;-66
2022/12/21 04:49:27;;;;;;;3.37;1.90;;;7.00;58.30;;;;;;4969695;28;46423;-68
2022/12/21 04:51:53;;;;;;;3.60;2.03;;;7.00;58.90;;;;;;4986943;28;46374;-65
2022/12/21 04:54:18;;;;;;;3.53;2.03;;;7.00;58.60;;;;;;4969530;28;46560;-67
2022/12/21 04:56:44;;;;;;;3.00;1.97;;;6.90;58.60;;;;;;4971003;28;46481;-66
2022/12/21 04:59:10;;;;;;;3.53;2.00;;;6.90;59.70;;;;;;4984573;28;48892;-66
2022/12/21 05:01:35;;;;;;;7.23;2.20;;;7.00;58.80;;;;;;4969348;28;46865;-66
2022/12/21 05:04:01;;;;;;;3.93;2.10;;;7.00;58.60;;;;;;4972063;28;46453;-66
2022/12/21 05:06:27;;;;;;;4.00;1.90;;;7.10;58.50;;;;;;4970881;28;46483;-66
2022/12/21 05:08:53;;;;;;;3.70;2.13;;;7.20;58.50;;;;;;4967908;28;46538;-65
2022/12/21 05:11:20;;;;;;;6.07;2.20;;;7.20;58.40;;;;;;4969380;28;46461;-65
2022/12/21 05:13:46;;;;;;;3.23;1.60;;;7.20;58.60;;;;;;4971751;28;46437;-66
2022/12/21 05:16:18;;;;;;;6.43;2.20;;;7.20;58.70;;;;;;4968574;28;46541;-67
2022/12/21 05:18:44;;;;;;;4.73;2.10;;;7.20;58.90;;;;;;4970717;28;47897;-66
2022/12/21 05:21:11;;;;;;;4.63;2.07;;;7.20;59.00;;;;;;4970114;28;45766;-65
2022/12/21 05:23:37;;;;;;;4.80;1.83;;;7.20;59.10;;;;;;4969438;28;46810;-67
2022/12/21 05:26:04;;;;;;;5.23;1.83;;;7.20;59.40;;;;;;4970361;28;46530;-66
2022/12/21 05:28:30;;;;;;;3.37;1.80;;;7.10;59.40;;;;;;4968378;28;47039;-66
2022/12/21 05:30:56;;;;;;;7.73;2.17;;;7.10;59.50;;;;;;4969465;28;46016;-66
2022/12/21 05:33:22;;;;;;;3.90;1.90;;;7.10;59.80;;;;;;4985812;28;46550;-65
2022/12/21 05:35:47;;;;;;;3.13;1.93;;;7.10;59.80;;;;;;4974021;28;46699;-66
2022/12/21 05:38:13;;;;;;;3.00;1.60;;;7.20;59.70;;;;;;4971780;28;47189;-67
2022/12/21 05:40:39;;;;;;;3.10;1.70;;;7.30;59.60;;;;;;4971341;28;46470;-66
2022/12/21 05:43:05;;;;;;;2.30;1.43;;;7.40;59.50;;;;;;4986403;28;46486;-66
2022/12/21 05:45:31;;;;;;;3.80;1.80;;;7.40;59.70;;;;;;4969577;28;46316;-66
2022/12/21 05:47:57;;;;;;;2.70;1.57;;;7.40;59.80;;;;;;4972128;28;46352;-65
2022/12/21 05:50:24;;;;;;;3.70;1.70;;;7.40;59.80;;;;;;4968735;28;46298;-66
2022/12/21 05:52:50;;;;;;;2.50;1.77;;;7.40;59.80;;;;;;4972980;28;46469;-67
2022/12/21 05:55:15;;;;;;;9.37;2.37;;;7.40;60.00;;;;;;4984189;28;46425;-65
2022/12/21 05:57:41;;;;;;;6.60;2.33;;;7.40;60.00;;;;;;4971164;28;46567;-65
2022/12/21 06:00:08;;;;;;;5.60;2.00;;;7.30;61.10;;;;;;4973190;28;46427;-67
2022/12/21 06:02:33;;;;;;;4.60;1.80;;;7.30;60.00;;;;;;4970243;28;46455;-67
2022/12/21 06:04:59;;;;;;;4.00;1.70;;;7.30;59.90;;;;;;4969928;28;46570;-67
2022/12/21 06:07:25;;;;;;;4.20;1.77;;;7.30;60.00;;;;;;4970425;28;46627;-66
2022/12/21 06:09:50;;;;;;;7.47;2.40;;;7.30;60.00;;;;;;4971461;28;46371;-66
2022/12/21 06:12:16;;;;;;;19.53;8.80;;;7.30;60.10;;;;;;4968475;28;46555;-66
2022/12/21 06:14:42;;;;;;;34.67;14.13;;;7.30;60.10;;;;;;4970471;28;46459;-66
2022/12/21 06:17:07;;;;;;;6.83;3.23;;;7.30;60.00;;;;;;4970839;28;46392;-66
2022/12/21 06:19:33;;;;;;;6.60;2.33;;;7.20;60.10;;;;;;4972195;28;46427;-66
2022/12/21 06:21:58;;;;;;;7.07;2.63;;;7.20;59.50;;;;;;4970925;28;46642;-67
2022/12/21 06:24:24;;;;;;;4.07;2.70;;;7.20;60.50;;;;;;4970814;28;46503;-67
2022/12/21 06:26:50;;;;;;;4.70;2.10;;;7.10;60.40;;;;;;4969408;28;46530;-66
2022/12/21 06:29:16;;;;;;;4.40;2.27;;;7.20;60.50;;;;;;4970602;28;46450;-66
2022/12/21 06:31:41;;;;;;;7.27;2.57;;;7.20;60.50;;;;;;4968975;28;46404;-66
2022/12/21 06:34:09;;;;;;;14.57;2.60;;;7.10;60.60;;;;;;4967114;28;45988;-66
2022/12/21 06:36:35;;;;;;;2.67;1.90;;;7.10;60.60;;;;;;4970195;28;47368;-65
2022/12/21 06:39:00;;;;;;;5.80;2.50;;;7.10;60.90;;;;;;4970046;28;46273;-66
2022/12/21 06:41:26;;;;;;;7.60;2.57;;;7.10;61.10;;;;;;4968131;28;46435;-66
2022/12/21 06:43:51;;;;;;;5.20;2.80;;;7.10;61.20;;;;;;4966491;28;46396;-65
2022/12/21 06:46:19;;;;;;;6.83;2.90;;;7.00;61.10;;;;;;4968318;28;46356;-66
2022/12/21 06:48:44;;;;;;;5.03;2.90;;;7.00;61.40;;;;;;4971544;28;46517;-66
2022/12/21 06:51:21;;;;;;;7.03;3.70;;;6.90;61.80;;;;;;4970682;28;46459;-66
2022/12/21 06:53:49;;;;;;;11.23;3.60;;;6.90;61.90;;;;;;4970641;28;46337;-66
2022/12/21 06:56:20;;;;;;;5.37;3.27;;;7.00;61.90;;;;;;4970359;28;47996;-67
2022/12/21 06:58:48;;;;;;;6.37;3.03;;;7.00;61.60;;;;;;4978708;28;45947;-65
2022/12/21 07:01:27;;;;;;;7.53;3.20;;;7.10;61.60;;;;;;4971589;28;46449;-66
2022/12/21 07:03:54;;;;;;;5.33;2.37;;;7.10;61.30;;;;;;4970519;28;46569;-67
2022/12/21 07:06:21;;;;;;;4.50;2.40;;;7.10;61.10;;;;;;4975275;28;46578;-67
2022/12/21 07:08:48;;;;;;;6.57;4.13;;;7.10;60.70;;;;;;4974077;28;46554;-67
2022/12/21 07:11:15;;;;;;;7.60;3.50;;;7.20;60.70;;;;;;4972641;28;46452;-66
2022/12/21 07:13:43;;;;;;;13.13;3.10;;;7.20;60.70;;;;;;4970118;28;46432;-67
2022/12/21 07:16:11;;;;;;;6.80;2.50;;;7.30;60.90;;;;;;4972472;28;47027;-66
2022/12/21 07:18:37;;;;;;;6.47;2.47;;;7.30;61.00;;;;;;4971913;28;46499;-65
2022/12/21 07:21:05;;;;;;;6.57;2.80;;;7.30;60.90;;;;;;4970347;28;46417;-66
2022/12/21 07:23:32;;;;;;;4.70;2.60;;;7.30;61.00;;;;;;4986480;28;46354;-67
2022/12/21 07:25:58;;;;;;;3.83;2.37;;;7.40;60.90;;;;;;4972758;28;47332;-66
2022/12/21 07:28:24;;;;;;;4.83;2.60;;;7.40;60.90;;;;;;4969845;28;46373;-67
2022/12/21 07:31:05;;;;;;;10.60;2.40;;;7.40;61.00;;;;;;4973383;28;46376;-66
2022/12/21 07:33:32;;;;;;;9.70;6.20;;;7.40;61.20;;;;;;4972614;28;46384;-66
2022/12/21 07:35:59;;;;;;;10.10;5.87;;;7.40;61.20;;;;;;4967317;28;46433;-64
2022/12/21 07:38:29;;;;;;;13.40;6.50;;;7.40;61.10;;;;;;4969920;28;46475;-66
2022/12/21 07:41:04;;;;;;;41.90;16.67;;;7.50;61.30;;;;;;4970519;28;45915;-65
2022/12/21 07:43:31;;;;;;;12.77;6.37;;;7.50;61.30;;;;;;4974722;28;46498;-67
2022/12/21 07:45:57;;;;;;;16.50;6.93;;;7.50;61.50;;;;;;4972773;28;46361;-63
2022/12/21 07:48:23;;;;;;;13.00;7.73;;;7.60;61.50;;;;;;4968057;28;46435;-63
2022/12/21 07:50:50;;;;;;;14.33;5.00;;;7.70;61.40;;;;;;4970348;28;46484;-64
2022/12/21 07:53:16;;;;;;;7.63;3.67;;;7.70;61.50;;;;;;4971982;28;46499;-65
2022/12/21 07:55:43;;;;;;;3.93;2.77;;;7.70;61.50;;;;;;4985613;28;48037;-64
2022/12/21 07:58:09;;;;;;;11.10;3.23;;;7.70;61.50;;;;;;4970719;28;45997;-64
2022/12/21 08:00:37;;;;;;;6.10;3.23;;;7.70;62.40;;;;;;4973420;28;46717;-68
2022/12/21 08:03:07;;;;;;;6.27;2.20;;;7.70;61.90;;;;;;4976507;28;46451;-66
2022/12/21 08:05:33;;;;;;;3.53;1.87;;;7.80;62.00;;;;;;4969212;28;47150;-67
2022/12/21 08:08:02;;;;;;;10.20;5.10;;;7.90;61.90;;;;;;4985495;28;46456;-66
2022/12/21 08:10:28;;;;;;;10.10;4.57;;;7.90;62.00;;;;;;4968276;28;46520;-65
2022/12/21 08:12:54;;;;;;;8.40;4.23;;;8.00;63.10;;;;;;4973569;28;46660;-65
2022/12/21 08:15:21;;;;;;;8.13;4.23;;;8.10;61.90;;;;;;4968797;28;46264;-66
2022/12/21 08:17:53;;;;;;;9.77;5.10;;;8.10;61.80;;;;;;4970986;28;45955;-65
2022/12/21 08:20:19;;;;;;;9.70;4.60;;;8.20;61.70;;;;;;4968332;28;46475;-65
2022/12/21 08:22:45;;;;;;;9.80;6.67;;;8.20;61.60;;;;;;4975167;28;46634;-65
2022/12/21 08:25:11;;;;;;;13.10;6.00;;;8.30;61.50;;;;;;4983219;28;48209;-67
2022/12/21 08:27:37;;;;;;;9.67;5.60;;;8.30;61.50;;;;;;4974214;28;46418;-66
2022/12/21 08:30:04;;;;;;;13.33;6.17;;;8.40;61.70;;;;;;4971560;28;46520;-66
2022/12/21 08:32:30;;;;;;;12.80;9.33;;;8.40;61.70;;;;;;4968505;28;46135;-66
2022/12/21 08:34:56;;;;;;;10.37;5.50;;;8.30;61.70;;;;;;4970806;28;46429;-67
2022/12/21 08:37:22;;;;;;;15.33;8.47;;;8.30;61.90;;;;;;4970628;28;46240;-65
2022/12/21 08:39:48;;;;;;;22.40;10.80;;;8.20;62.20;;;;;;4973018;28;46463;-65
2022/12/21 08:42:14;;;;;;;45.30;19.03;;;8.10;62.30;;;;;;4971973;28;46385;-65
2022/12/21 08:44:39;;;;;;;22.83;9.87;;;8.20;62.30;;;;;;4967562;28;46512;-65
2022/12/21 08:47:06;;;;;;;5.40;3.20;;;8.20;62.30;;;;;;4968544;28;46392;-65
2022/12/21 08:49:32;;;;;;;5.30;2.80;;;8.30;62.30;;;;;;4968273;28;46505;-65
2022/12/21 08:51:58;;;;;;;7.10;2.90;;;8.40;61.10;;;;;;4968647;28;46416;-64
2022/12/21 08:54:25;;;;;;;2.93;2.20;;;8.40;62.20;;;;;;4968211;28;47715;-65
2022/12/21 08:56:50;;;;;;;6.03;2.60;;;8.40;61.80;;;;;;4971784;28;46742;-65
2022/12/21 08:59:16;;;;;;;5.73;2.33;;;8.70;61.80;;;;;;4971353;28;46388;-64
2022/12/21 09:01:41;;;;;;;3.63;1.97;;;8.70;61.70;;;;;;4969456;28;46274;-63
2022/12/21 09:04:07;;;;;;;8.70;5.10;;;8.80;61.70;;;;;;4965678;28;47336;-64
2022/12/21 09:06:33;;;;;;;16.80;10.07;;;8.80;61.70;;;;;;4981491;28;46487;-64
2022/12/21 09:08:58;;;;;;;9.23;5.30;;;8.80;61.70;;;;;;4966478;28;46780;-64
2022/12/21 09:11:24;;;;;;;10.63;3.10;;;8.80;61.70;;;;;;4973252;28;46396;-63
2022/12/21 09:13:50;;;;;;;4.20;2.37;;;8.80;61.70;;;;;;4970803;28;46456;-63
2022/12/21 09:16:18;;;;;;;5.77;2.40;;;8.90;61.60;;;;;;4969039;28;45897;-64
2022/12/21 09:18:44;;;;;;;4.53;2.80;;;8.90;61.40;;;;;;4970041;28;46463;-64
2022/12/21 09:21:11;;;;;;;5.90;2.93;;;8.90;61.40;;;;;;4971420;28;46482;-65
2022/12/21 09:23:38;;;;;;;10.03;1.97;;;8.80;61.50;;;;;;4969106;28;48239;-64
2022/12/21 09:26:05;;;;;;;5.17;1.77;;;8.80;61.80;;;;;;4971510;28;46538;-64
2022/12/21 09:28:31;;;;;;;4.77;2.17;;;8.80;61.90;;;;;;4976241;28;46419;-64
2022/12/21 09:31:11;;;;;;;3.60;2.30;;;8.70;61.80;;;;;;4968759;28;46696;-65
2022/12/21 09:33:39;;;;;;;6.80;4.23;;;8.60;62.00;;;;;;4973482;28;46670;-62
2022/12/21 09:36:06;;;;;;;6.73;3.67;;;8.60;62.30;;;;;;4971345;28;46776;-63
2022/12/21 09:38:33;;;;;;;3.13;1.53;;;8.60;62.00;;;;;;4970670;28;46696;-63
2022/12/21 09:41:22;;;;;;;6.10;1.90;;;8.60;61.70;;;;;;4979795;28;46518;-65
2022/12/21 09:44:25;;;;;;;6.97;2.80;;;8.70;61.50;;;;;;4966836;28;46466;-64
2022/12/21 09:46:56;;;;;;;4.70;2.90;;;8.70;61.10;;;;;;4971627;28;46328;-64
2022/12/21 09:49:29;;;;;;;6.87;1.53;;;8.70;61.00;;;;;;4966622;28;46538;-65
2022/12/21 09:51:57;;;;;;;7.73;3.13;;;8.70;59.80;;;;;;4966335;28;46444;-65
2022/12/21 09:54:42;;;;;;;13.23;4.50;;;8.70;60.80;;;;;;4966766;28;46617;-66
2022/12/21 09:57:12;;;;;;;5.27;2.57;;;8.70;60.70;;;;;;4971596;28;46568;-65
2022/12/21 09:59:38;;;;;;;8.10;3.97;;;8.70;60.70;;;;;;4968429;28;46597;-64
2022/12/21 10:02:06;;;;;;;3.83;1.97;;;8.80;60.80;;;;;;4967460;28;46365;-65
2022/12/21 10:04:41;;;;;;;12.27;4.37;;;8.80;60.60;;;;;;4983217;28;48294;-66
2022/12/21 10:07:23;;;;;;;41.90;15.93;;;8.80;60.50;;;;;;4966397;28;46517;-64
2022/12/21 10:10:05;;;;;;;10.07;4.33;;;8.90;60.50;;;;;;4968254;28;46464;-64
2022/12/21 10:13:21;;;;;;;5.57;2.20;;;9.10;59.80;;;;;;4966772;28;46345;-65
2022/12/21 10:16:01;;;;;;;12.63;5.40;;;9.20;59.70;;;;;;4903467;28;47309;-62
2022/12/21 10:18:44;;;;;;;8.17;3.17;;;9.30;59.50;;;;;;4968660;28;46419;-65
2022/12/21 10:21:37;;;;;;;18.53;7.60;;;9.30;59.70;;;;;;4966172;28;46360;-63
2022/12/21 10:24:11;;;;;;;11.63;7.43;;;9.30;59.60;;;;;;4968165;28;46344;-65
2022/12/21 10:26:37;;;;;;;20.13;8.70;;;9.40;59.70;;;;;;4970228;28;47352;-62
2022/12/21 10:29:14;;;;;;;37.33;11.57;;;9.50;59.40;;;;;;4966550;28;46488;-64
2022/12/21 10:31:44;;;;;;;19.50;8.17;;;9.70;59.10;;;;;;4967380;28;46427;-63
2022/12/21 10:34:22;;;;;;;5.83;3.27;;;9.90;58.70;;;;;;4966217;28;46426;-64
2022/12/21 10:36:52;;;;;;;5.50;3.70;;;10.10;57.10;;;;;;4966877;28;46263;-63
2022/12/21 10:39:17;;;;;;;31.37;16.47;;;10.30;56.60;;;;;;4968527;28;46622;-64
2022/12/21 10:42:06;;;;;;;68.07;30.60;;;10.40;56.40;;;;;;4967859;28;46451;-67
2022/12/21 10:44:36;;;;;;;49.20;24.00;;;10.50;56.20;;;;;;4968233;28;46788;-66
2022/12/21 10:47:15;;;;;;;28.93;15.93;;;10.60;55.70;;;;;;4965356;28;46474;-66
2022/12/21 10:49:47;;;;;;;7.00;4.17;;;10.70;55.30;;;;;;4966762;28;46498;-66
2022/12/21 10:52:38;;;;;;;9.23;4.33;;;10.50;55.10;;;;;;4965002;28;46470;-66
2022/12/21 10:55:32;;;;;;;8.83;4.80;;;10.70;54.90;;;;;;4981233;28;45971;-65
2022/12/21 10:58:03;;;;;;;14.13;6.27;;;10.70;54.90;;;;;;4964746;28;46511;-66
2022/12/21 11:00:31;;;;;;;22.13;8.83;;;10.90;54.90;;;;;;4965756;28;46508;-65
2022/12/21 11:03:03;;;;;;;18.47;6.70;;;10.90;54.50;;;;;;4963563;28;46492;-66
2022/12/21 11:05:42;;;;;;;21.90;8.07;;;10.90;54.50;;;;;;4963131;28;46524;-66
2022/12/21 11:08:10;;;;;;;18.57;7.47;;;11.10;54.10;;;;;;4966514;28;46738;-66
2022/12/21 11:10:36;;;;;;;20.33;8.43;;;11.20;54.30;;;;;;4979919;28;46453;-67
2022/12/21 11:13:05;;;;;;;13.83;6.10;;;11.20;53.90;;;;;;4969407;28;46836;-64
2022/12/21 11:15:32;;;;;;;13.23;5.13;;;11.40;53.30;;;;;;4967621;28;46368;-64
2022/12/21 11:17:58;;;;;;;17.30;6.70;;;11.40;53.00;;;;;;4967515;28;47582;-66
2022/12/21 11:20:25;;;;;;;10.27;4.30;;;11.40;53.30;;;;;;4966825;28;46398;-66
2022/12/21 11:22:55;;;;;;;11.83;4.53;;;11.30;53.50;;;;;;4970913;28;46798;-65
2022/12/21 11:25:26;;;;;;;11.90;4.90;;;11.20;53.70;;;;;;4966797;28;46594;-64
2022/12/21 11:27:59;;;;;;;10.13;4.03;;;11.20;53.80;;;;;;4968620;28;46866;-65
2022/12/21 11:30:27;;;;;;;12.77;4.27;;;11.20;53.80;;;;;;4966735;28;46909;-66
2022/12/21 11:32:56;;;;;;;12.90;3.93;;;11.30;53.80;;;;;;4968783;28;46443;-65
2022/12/21 11:35:27;;;;;;;10.50;3.63;;;11.30;53.80;;;;;;4970124;28;46404;-64
2022/12/21 11:38:13;;;;;;;9.47;4.33;;;11.30;53.70;;;;;;4971744;28;46649;-64
2022/12/21 11:40:52;;;;;;;6.03;3.43;;;11.40;53.00;;;;;;4971737;28;46610;-66
2022/12/21 11:43:18;;;;;;;21.10;3.57;;;11.50;53.00;;;;;;4967344;28;46400;-63
2022/12/21 11:46:13;;;;;;;11.10;4.07;;;11.60;53.30;;;;;;4987024;28;46181;-64
2022/12/21 11:49:04;;;;;;;12.77;3.40;;;11.70;53.20;;;;;;4973075;28;47239;-64
2022/12/21 11:51:48;;;;;;;8.77;3.30;;;11.90;52.90;;;;;;4973569;28;46470;-65
2022/12/21 11:54:47;;;;;;;11.00;2.83;;;12.10;52.70;;;;;;4972544;28;46709;-65
2022/12/21 11:57:42;;;;;;;5.80;3.00;;;12.10;52.10;;;;;;4972888;28;46544;-65
2022/12/21 12:00:19;;;;;;;6.57;2.80;;;12.10;51.80;;;;;;4974191;28;46868;-65
2022/12/21 12:03:19;;;;;;;9.07;2.40;;;12.10;51.70;;;;;;4970363;28;46455;-66
2022/12/21 12:06:10;;;;;;;7.60;2.73;;;12.10;51.50;;;;;;4985249;28;46541;-64
2022/12/21 12:08:55;;;;;;;6.43;2.30;;;12.10;51.40;;;;;;4967720;28;46745;-65
2022/12/21 12:12:00;;;;;;;9.43;2.10;;;12.10;51.60;;;;;;4973510;28;47693;-65
2022/12/21 12:14:59;;;;;;;8.00;4.80;;;12.00;51.70;;;;;;4969632;28;46479;-63
2022/12/21 12:17:44;;;;;;;10.57;3.50;;;12.10;52.90;;;;;;4969859;28;46674;-63
2022/12/21 12:20:13;;;;;;;5.80;2.20;;;11.90;51.70;;;;;;4970524;28;46443;-62
2022/12/21 12:23:04;;;;;;;6.93;2.20;;;11.80;52.20;;;;;;4985308;28;47683;-62
2022/12/21 12:25:36;;;;;;;4.00;1.83;;;11.70;52.30;;;;;;4971947;28;46430;-63
2022/12/21 12:28:02;;;;;;;4.73;2.07;;;11.60;53.10;;;;;;4972423;28;46468;-63
2022/12/21 12:30:40;;;;;;;5.00;1.80;;;11.50;53.10;;;;;;4968396;28;46460;-63
2022/12/21 12:33:22;;;;;;;5.73;1.70;;;11.40;52.90;;;;;;4982471;28;46659;-63
2022/12/21 12:35:58;;;;;;;4.03;1.27;;;11.40;52.90;;;;;;4966999;28;45845;-67
2022/12/21 12:38:28;;;;;;;2.20;1.20;;;11.30;52.80;;;;;;4986287;28;46531;-67
2022/12/21 12:41:15;;;;;;;2.87;1.27;;;11.10;52.70;;;;;;4969470;28;46900;-67
2022/12/21 12:43:46;;;;;;;4.40;1.50;;;11.00;52.60;;;;;;4967738;28;47959;-65
2022/12/21 12:46:21;;;;;;;3.10;1.40;;;10.90;52.50;;;;;;4968244;28;46310;-67
2022/12/21 12:49:12;;;;;;;2.93;1.27;;;10.90;52.50;;;;;;4973659;28;46447;-66
2022/12/21 12:51:53;;;;;;;2.10;1.00;;;10.90;52.50;;;;;;4984878;28;46080;-66
2022/12/21 12:54:30;;;;;;;2.53;1.20;;;11.00;52.50;;;;;;4969995;28;46423;-68
2022/12/21 12:57:20;;;;;;;3.13;1.20;;;11.00;52.50;;;;;;4974166;28;46763;-66
2022/12/21 12:59:57;;;;;;;2.83;1.13;;;10.90;52.40;;;;;;4969386;28;46424;-63
2022/12/21 13:02:35;;;;;;;2.13;1.10;;;10.80;52.50;;;;;;4972596;28;46466;-63
2022/12/21 13:05:24;;;;;;;4.97;1.30;;;10.70;54.40;;;;;;4968287;28;46649;-64
2022/12/21 13:08:10;;;;;;;3.90;1.57;;;10.60;53.30;;;;;;4972348;28;46517;-64
2022/12/21 13:11:13;;;;;;;5.63;1.20;;;10.50;53.50;;;;;;4985313;28;46493;-64
2022/12/21 13:13:46;;;;;;;4.93;1.40;;;10.40;53.80;;;;;;4970870;28;47230;-64
2022/12/21 13:16:39;;;;;;;2.40;1.23;;;10.30;53.90;;;;;;4967944;28;47261;-66
2022/12/21 13:19:08;;;;;;;3.30;1.40;;;10.30;54.00;;;;;;4968893;28;46392;-66
2022/12/21 13:21:38;;;;;;;2.87;1.67;;;10.40;53.90;;;;;;4968108;28;46425;-66
2022/12/21 13:24:17;;;;;;;3.53;1.87;;;10.30;54.00;;;;;;4968073;28;46543;-64
2022/12/21 13:26:49;;;;;;;4.80;1.80;;;10.30;53.90;;;;;;4967917;28;46616;-64
2022/12/21 13:29:27;;;;;;;9.53;5.70;;;10.30;54.10;;;;;;4968277;28;46751;-64
2022/12/21 13:32:09;;;;;;;3.80;1.80;;;10.20;53.20;;;;;;4970557;28;46493;-63
2022/12/21 13:35:02;;;;;;;2.57;1.43;;;10.20;54.20;;;;;;4969887;28;46653;-62